createdAt,value
2022-08-29T00:05:25.093Z,16.10
2022-08-29T00:15:28.253Z,16.00
2022-08-29T00:25:31.630Z,15.89
2022-08-29T00:35:38.163Z,15.81
2022-08-29T00:45:51.173Z,15.73
2022-08-29T00:55:53.538Z,15.65
2022-08-29T01:05:55.991Z,15.58
2022-08-29T01:15:59.417Z,15.51
2022-08-29T01:26:04.310Z,15.41
2022-08-29T01:36:08.384Z,15.34
2022-08-29T01:46:13.189Z,15.30
2022-08-29T01:56:22.709Z,15.20
2022-08-29T02:06:26.576Z,15.12
2022-08-29T02:16:30.326Z,15.00
2022-08-29T02:26:32.868Z,14.94
2022-08-29T02:36:36.468Z,14.87
2022-08-29T02:46:39.125Z,14.77
2022-08-29T02:56:42.293Z,14.73
2022-08-29T03:06:44.815Z,14.65
2022-08-29T03:16:47.282Z,14.55
2022-08-29T03:26:56.360Z,14.43
2022-08-29T03:37:00.558Z,14.39
2022-08-29T03:47:03.192Z,14.29
2022-08-29T03:57:07.373Z,14.21
2022-08-29T04:07:13.131Z,14.14
2022-08-29T04:17:15.532Z,14.07
2022-08-29T04:27:17.874Z,13.99
2022-08-29T04:37:20.412Z,13.98
2022-08-29T04:47:22.850Z,13.92
2022-08-29T04:57:25.460Z,13.89
2022-08-29T05:07:28.098Z,13.89
2022-08-29T05:17:30.700Z,13.89
2022-08-29T05:27:33.445Z,13.92
2022-08-29T05:37:39.096Z,14.02
2022-08-29T05:47:44.003Z,14.22
2022-08-29T05:57:50.418Z,14.55
2022-08-29T06:07:55.176Z,14.94
2022-08-29T06:17:58.513Z,15.33
2022-08-29T06:28:03.117Z,15.72
2022-08-29T06:38:21.730Z,16.19
2022-08-29T06:48:29.565Z,16.62
2022-08-29T06:58:36.865Z,17.10
2022-08-29T07:08:55.452Z,17.56
2022-08-29T07:19:00.742Z,17.93
2022-08-29T07:29:19.580Z,18.24
2022-08-29T07:50:32.913Z,19.01
2022-08-29T08:00:43.556Z,19.56
2022-08-29T08:10:55.119Z,20.08
2022-08-29T08:21:00.815Z,20.54
2022-08-29T08:31:18.274Z,21.18
2022-08-29T08:53:27.771Z,21.80
2022-08-29T09:03:39.147Z,22.39
2022-08-29T09:14:16.100Z,22.97
2022-08-29T09:36:34.274Z,23.56
2022-08-29T09:47:28.956Z,23.81
2022-08-29T09:57:51.111Z,24.23
2022-08-29T10:29:41.606Z,25.12
2022-08-29T10:40:19.233Z,25.11
2022-08-29T10:50:53.819Z,25.62
2022-08-29T11:01:26.382Z,25.97
2022-08-29T11:11:51.328Z,26.02
2022-08-29T11:22:14.854Z,26.61
2022-08-29T11:33:02.887Z,27.01
2022-08-29T11:43:23.033Z,27.25
2022-08-29T11:53:38.177Z,27.52
2022-08-29T12:03:51.746Z,28.15
2022-08-29T12:14:01.441Z,28.39
2022-08-29T12:24:31.084Z,28.72
2022-08-29T12:34:54.043Z,28.81
2022-08-29T12:45:45.057Z,29.55
2022-08-29T13:06:22.300Z,30.45
2022-08-29T13:16:31.842Z,30.78
2022-08-29T13:38:16.427Z,31.32
2022-08-29T13:48:58.061Z,31.77
2022-08-29T13:59:02.948Z,32.13
2022-08-29T14:09:11.052Z,32.23
2022-08-29T14:19:17.194Z,32.13
2022-08-29T14:29:24.550Z,31.72
2022-08-29T14:39:35.744Z,30.82
2022-08-29T14:49:40.677Z,30.49
2022-08-29T14:59:47.127Z,29.92
2022-08-29T15:09:51.409Z,29.15
2022-08-29T15:30:23.261Z,28.54
2022-08-29T15:40:26.999Z,28.17
2022-08-29T15:50:30.288Z,27.77
2022-08-29T16:00:34.914Z,27.41
2022-08-29T16:10:38.555Z,27.14
2022-08-29T16:20:41.777Z,26.88
2022-08-29T16:30:46.316Z,26.54
2022-08-29T16:40:49.452Z,26.18
2022-08-29T16:50:54.991Z,25.70
2022-08-29T17:00:58.331Z,25.34
2022-08-29T17:11:01.101Z,25.31
2022-08-29T17:21:04.805Z,25.07
2022-08-29T17:31:08.851Z,24.76
2022-08-29T17:41:17.322Z,24.55
2022-08-29T17:51:20.287Z,24.13
2022-08-29T18:01:25.942Z,23.67
2022-08-29T18:11:39.758Z,23.14
2022-08-29T18:21:44.716Z,22.71
2022-08-29T18:31:48.018Z,22.33
2022-08-29T18:41:52.624Z,21.94
2022-08-29T18:51:55.293Z,21.67
2022-08-29T19:01:58.096Z,21.39
2022-08-29T19:12:01.037Z,21.15
2022-08-29T19:22:04.106Z,20.90
2022-08-29T19:32:07.739Z,20.65
2022-08-29T19:42:10.341Z,20.43
2022-08-29T19:52:19.230Z,20.20
2022-08-29T20:02:21.888Z,19.99
2022-08-29T20:12:24.875Z,19.79
2022-08-29T20:22:29.870Z,19.59
2022-08-29T20:32:32.839Z,19.41
2022-08-29T20:42:35.620Z,19.26
2022-08-29T20:52:38.666Z,19.09
2022-08-29T21:03:00.413Z,18.97
2022-08-29T21:13:03.522Z,18.77
2022-08-29T21:23:08.880Z,18.62
2022-08-29T21:33:16.128Z,18.46
2022-08-29T21:43:20.049Z,18.33
2022-08-29T21:53:23.424Z,18.22
2022-08-29T22:03:25.775Z,18.08
2022-08-29T22:13:28.344Z,17.97
2022-08-29T22:23:31.209Z,17.89
2022-08-29T22:33:33.714Z,17.76
2022-08-29T22:43:36.911Z,17.65
2022-08-29T22:53:39.533Z,17.56
2022-08-29T23:03:42.000Z,17.49
2022-08-29T23:13:45.581Z,17.38
2022-08-29T23:23:48.699Z,17.32
2022-08-29T23:33:52.372Z,17.22
2022-08-29T23:43:54.784Z,17.12
2022-08-29T23:53:57.686Z,17.06
